Time;durP1;ratioP1;P1;durP2;ratioP2;P2;SDS_P1;SDS_P2;PMS_P1;PMS_P2;Temp;Humidity;BMP_temperature;BMP_pressure;BME280_temperature;BME280_humidity;BME280_pressure;Samples;Min_cycle;Max_cycle;Signal;HPM_P1;HPM_P2
2022/11/06 00:00:21;;;;;;;70.87;36.77;;;9.00;99.90;;;;;;4147953;28;20049;-65
2022/11/06 00:02:23;;;;;;;71.23;35.93;;;8.90;99.90;;;;;;4147932;28;20037;-64
2022/11/06 00:04:24;;;;;;;63.40;36.20;;;8.90;99.90;;;;;;4152994;28;20067;-64
2022/11/06 00:08:45;;;;;;;66.27;36.37;;;8.90;99.90;;;;;;4163596;28;20575;-65
2022/11/06 00:10:46;;;;;;;67.50;36.43;;;8.90;99.90;;;;;;4163690;28;20037;-64
2022/11/06 00:12:48;;;;;;;62.87;36.90;;;8.90;99.90;;;;;;4162431;28;20041;-64
2022/11/06 00:14:49;;;;;;;61.83;33.73;;;8.80;99.90;;;;;;4157579;28;20041;-64
2022/11/06 00:16:50;;;;;;;64.63;34.63;;;8.70;99.90;;;;;;4147533;28;20042;-65
2022/11/06 00:18:51;;;;;;;58.93;34.53;;;8.70;99.90;;;;;;4147770;28;20096;-64
2022/11/06 00:20:52;;;;;;;59.57;34.57;;;8.70;99.90;;;;;;4145910;28;20038;-64
2022/11/06 00:22:53;;;;;;;57.57;34.07;;;8.70;99.90;;;;;;4147536;28;20030;-65
2022/11/06 00:24:55;;;;;;;58.90;35.37;;;8.70;99.90;;;;;;4146563;28;20084;-64
2022/11/06 00:26:56;;;;;;;57.20;32.63;;;8.70;99.90;;;;;;4152909;28;20100;-65
2022/11/06 00:28:57;;;;;;;54.90;31.33;;;8.70;99.90;;;;;;4146082;28;20042;-64
2022/11/06 00:31:04;;;;;;;61.33;32.83;;;8.70;99.90;;;;;;4147003;28;20421;-65
2022/11/06 00:33:05;;;;;;;63.50;32.67;;;8.70;99.90;;;;;;4146941;28;20034;-65
2022/11/06 00:35:06;;;;;;;54.70;32.20;;;8.70;99.90;;;;;;4145886;28;20088;-65
2022/11/06 00:37:08;;;;;;;56.10;30.13;;;8.70;99.90;;;;;;4152707;28;20075;-64
2022/11/06 00:39:10;;;;;;;52.63;29.90;;;8.70;99.90;;;;;;4160871;28;20430;-64
2022/11/06 00:41:14;;;;;;;52.43;28.70;;;8.60;99.90;;;;;;4160409;28;20442;-65
2022/11/06 00:43:15;;;;;;;57.57;30.17;;;8.50;99.90;;;;;;4146309;28;20368;-64
2022/11/06 00:45:17;;;;;;;46.00;26.30;;;8.40;99.90;;;;;;4147430;28;20482;-64
2022/11/06 00:47:18;;;;;;;47.77;25.43;;;8.40;99.90;;;;;;4145177;28;20064;-64
2022/11/06 00:49:19;;;;;;;45.50;26.07;;;8.30;99.90;;;;;;4146365;28;20042;-64
2022/11/06 00:51:26;;;;;;;53.10;28.70;;;8.20;99.90;;;;;;4145323;28;20096;-65
2022/11/06 00:53:27;;;;;;;61.57;35.90;;;8.20;99.90;;;;;;4161977;28;20029;-65
2022/11/06 00:55:28;;;;;;;74.63;38.07;;;8.10;99.90;;;;;;4161683;28;20042;-65
2022/11/06 00:57:30;;;;;;;63.93;36.23;;;8.10;99.90;;;;;;4163256;28;20075;-64
2022/11/06 00:59:32;;;;;;;60.53;32.83;;;8.10;99.90;;;;;;4161817;28;20831;-66
2022/11/06 01:01:38;;;;;;;55.97;33.63;;;8.10;99.90;;;;;;4157803;28;20033;-65
2022/11/06 01:03:40;;;;;;;61.13;33.73;;;8.00;99.90;;;;;;4160038;28;20088;-63
2022/11/06 01:05:41;;;;;;;61.83;31.77;;;8.00;99.90;;;;;;4162218;28;20555;-65
2022/11/06 01:07:42;;;;;;;53.03;28.93;;;8.00;99.90;;;;;;4163310;28;20066;-64
2022/11/06 01:09:43;;;;;;;54.40;30.00;;;7.90;99.90;;;;;;4161841;28;20055;-64
2022/11/06 01:11:48;;;;;;;56.40;31.03;;;7.80;99.90;;;;;;4162983;28;20429;-64
2022/11/06 01:13:52;;;;;;;61.67;31.70;;;7.80;99.90;;;;;;4161267;28;20045;-66
2022/11/06 01:15:54;;;;;;;63.03;32.87;;;7.70;99.90;;;;;;4157409;28;20088;-65
2022/11/06 01:17:55;;;;;;;57.27;31.50;;;7.70;99.90;;;;;;4146695;28;20030;-64
2022/11/06 01:19:56;;;;;;;61.03;31.77;;;7.80;99.90;;;;;;4146841;28;20183;-64
2022/11/06 01:21:57;;;;;;;62.27;32.67;;;7.80;99.90;;;;;;4145537;28;20033;-65
2022/11/06 01:24:04;;;;;;;61.33;33.70;;;7.70;99.90;;;;;;4145895;28;20062;-63
2022/11/06 01:26:07;;;;;;;62.17;34.47;;;7.80;99.90;;;;;;4144850;28;20046;-63
2022/11/06 01:28:08;;;;;;;60.40;32.73;;;7.80;99.90;;;;;;4147543;28;20092;-64
2022/11/06 01:30:10;;;;;;;56.53;32.87;;;7.80;99.90;;;;;;4144774;28;20092;-64
2022/11/06 01:32:11;;;;;;;70.50;38.33;;;7.80;99.90;;;;;;4146190;28;20433;-64
2022/11/06 01:34:13;;;;;;;55.47;35.53;;;7.90;99.90;;;;;;4145611;28;20032;-63
2022/11/06 01:36:18;;;;;;;70.50;38.73;;;7.90;99.90;;;;;;4146306;28;20348;-64
2022/11/06 01:38:19;;;;;;;66.67;36.93;;;7.90;99.90;;;;;;4145959;28;20033;-64
2022/11/06 01:40:20;;;;;;;61.63;35.40;;;7.80;99.90;;;;;;4145287;28;20045;-64
2022/11/06 01:42:21;;;;;;;63.63;34.33;;;7.80;99.90;;;;;;4145198;28;20034;-64
2022/11/06 01:44:40;;;;;;;58.50;34.00;;;7.70;99.90;;;;;;4145440;28;20482;-64
2022/11/06 01:46:42;;;;;;;57.27;33.13;;;7.70;99.90;;;;;;4154629;28;20038;-64
2022/11/06 01:48:49;;;;;;;62.00;31.57;;;7.50;99.90;;;;;;4161888;28;20038;-64
2022/11/06 01:50:54;;;;;;;58.10;32.60;;;7.50;99.90;;;;;;4159927;28;20490;-64
2022/11/06 01:52:55;;;;;;;59.10;32.43;;;7.50;99.90;;;;;;4161211;28;20053;-63
2022/11/06 01:55:11;;;;;;;66.63;35.50;;;7.50;99.90;;;;;;4162484;28;20409;-64
2022/11/06 01:57:12;;;;;;;65.07;36.23;;;7.50;99.90;;;;;;4161654;28;20360;-64
2022/11/06 01:59:17;;;;;;;73.57;36.07;;;7.50;99.90;;;;;;4159763;28;20103;-63
2022/11/06 02:01:18;;;;;;;60.13;34.53;;;7.40;99.90;;;;;;4161153;28;20022;-64
2022/11/06 02:03:20;;;;;;;58.97;33.70;;;7.50;99.90;;;;;;4160627;28;20462;-64
2022/11/06 02:05:21;;;;;;;62.37;35.27;;;7.50;99.90;;;;;;4156000;28;20033;-64
2022/11/06 02:07:23;;;;;;;58.80;32.80;;;7.60;99.90;;;;;;4145598;28;20433;-64
2022/11/06 02:09:24;;;;;;;59.83;32.60;;;7.60;99.90;;;;;;4157093;28;20045;-63
2022/11/06 02:11:25;;;;;;;59.17;32.00;;;7.60;99.90;;;;;;4162455;28;20040;-63
2022/11/06 02:13:37;;;;;;;59.20;32.67;;;7.60;99.90;;;;;;4155844;28;20080;-64
2022/11/06 02:16:03;;;;;;;62.43;30.93;;;7.70;99.90;;;;;;4145921;28;20029;-64
2022/11/06 02:18:25;;;;;;;55.87;31.37;;;7.70;99.90;;;;;;4144847;28;20038;-63
2022/11/06 02:20:45;;;;;;;64.03;33.40;;;7.70;99.90;;;;;;4145937;28;20565;-63
2022/11/06 02:23:07;;;;;;;60.63;32.27;;;7.70;99.90;;;;;;4126928;28;20089;-64
2022/11/06 02:25:13;;;;;;;58.00;29.33;;;7.60;99.90;;;;;;4127781;28;20042;-64
2022/11/06 02:27:18;;;;;;;46.30;28.17;;;7.70;99.90;;;;;;4144761;28;20112;-63
2022/11/06 02:29:27;;;;;;;51.37;27.67;;;7.70;99.90;;;;;;4145996;28;20053;-64
2022/11/06 02:31:33;;;;;;;51.30;28.13;;;7.70;99.90;;;;;;4144455;28;20101;-64
2022/11/06 02:33:41;;;;;;;50.23;28.33;;;7.60;99.90;;;;;;4144957;28;20041;-64
2022/11/06 02:35:51;;;;;;;52.37;26.70;;;7.60;99.90;;;;;;4147368;28;20485;-64
2022/11/06 02:38:01;;;;;;;53.88;28.00;;;7.60;99.90;;;;;;4161733;28;20677;-64
2022/11/06 02:40:06;;;;;;;47.65;27.60;;;7.60;99.90;;;;;;4160292;28;20171;-64
2022/11/06 02:42:11;;;;;;;50.33;28.90;;;7.50;99.90;;;;;;4161235;28;20041;-63
2022/11/06 02:44:18;;;;;;;49.90;27.13;;;7.50;99.90;;;;;;4152898;28;20037;-64
2022/11/06 02:46:43;;;;;;;54.00;28.40;;;7.50;99.90;;;;;;4145295;28;20025;-64
2022/11/06 02:48:50;;;;;;;53.20;29.77;;;7.50;99.90;;;;;;4143254;28;20085;-63
2022/11/06 02:50:54;;;;;;;50.17;27.90;;;7.50;99.90;;;;;;4145014;28;20038;-63
2022/11/06 02:53:01;;;;;;;53.83;28.63;;;7.50;99.90;;;;;;4144536;28;20078;-64
2022/11/06 02:55:13;;;;;;;49.40;27.87;;;7.50;99.90;;;;;;4145248;28;20049;-64
2022/11/06 02:57:19;;;;;;;46.80;26.70;;;7.50;99.90;;;;;;4144248;28;20573;-63
2022/11/06 02:59:31;;;;;;;47.90;26.50;;;7.50;99.90;;;;;;4145508;28;20084;-63
2022/11/06 03:01:42;;;;;;;53.20;28.23;;;7.50;99.90;;;;;;4143562;28;20112;-63
2022/11/06 03:03:47;;;;;;;51.47;27.70;;;7.60;99.90;;;;;;4144829;28;20046;-63
2022/11/06 03:06:03;;;;;;;58.07;28.57;;;7.50;99.90;;;;;;4143575;28;20049;-64
2022/11/06 03:08:16;;;;;;;52.90;28.60;;;7.50;99.90;;;;;;4147154;28;20502;-64
2022/11/06 03:10:18;;;;;;;56.80;29.63;;;7.60;99.90;;;;;;4145411;28;20552;-64
2022/11/06 03:12:19;;;;;;;49.17;28.07;;;7.50;99.90;;;;;;4144595;28;20321;-64
2022/11/06 03:14:28;;;;;;;51.00;27.87;;;7.50;99.90;;;;;;4144258;28;20034;-64
2022/11/06 03:16:47;;;;;;;53.17;28.33;;;7.50;99.90;;;;;;4146074;28;20422;-65
2022/11/06 03:18:58;;;;;;;49.67;28.33;;;7.50;99.90;;;;;;4144287;28;20100;-64
2022/11/06 03:21:22;;;;;;;58.08;29.58;;;7.40;99.90;;;;;;4145315;28;20034;-64
2022/11/06 03:23:39;;;;;;;51.00;27.77;;;7.40;99.90;;;;;;4144187;28;20080;-64
2022/11/06 03:25:52;;;;;;;43.63;26.53;;;7.40;99.90;;;;;;4145162;28;20033;-64
2022/11/06 03:27:58;;;;;;;52.07;27.83;;;7.40;99.90;;;;;;4144141;28;20424;-64
2022/11/06 03:30:08;;;;;;;48.30;27.07;;;7.40;99.90;;;;;;4145168;28;20077;-64
2022/11/06 03:32:41;;;;;;;46.73;26.00;;;7.40;99.90;;;;;;4143744;28;20030;-64
2022/11/06 03:35:23;;;;;;;55.03;28.40;;;7.40;99.90;;;;;;4102046;28;20054;-64
2022/11/06 03:37:38;;;;;;;55.57;27.87;;;7.30;99.90;;;;;;4141160;28;20046;-64
2022/11/06 03:39:47;;;;;;;52.30;25.47;;;7.30;99.90;;;;;;4144199;28;20026;-63
2022/11/06 03:42:08;;;;;;;46.23;24.97;;;7.40;99.90;;;;;;4144990;28;20463;-64
2022/11/06 03:44:16;;;;;;;46.83;24.77;;;7.40;99.90;;;;;;4143794;28;20100;-64
2022/11/06 03:46:20;;;;;;;49.07;25.83;;;7.40;99.90;;;;;;4145170;28;20478;-64
2022/11/06 03:48:53;;;;;;;45.23;25.73;;;7.30;99.90;;;;;;4143844;28;20046;-64
2022/11/06 03:51:22;;;;;;;43.43;24.13;;;7.20;99.90;;;;;;4144394;28;20044;-65
2022/11/06 03:53:48;;;;;;;45.07;25.73;;;7.10;99.90;;;;;;4142651;28;20046;-64
2022/11/06 03:55:54;;;;;;;44.87;25.17;;;7.10;99.90;;;;;;4144896;28;20100;-64
2022/11/06 03:58:09;;;;;;;44.37;25.83;;;7.10;99.90;;;;;;4143989;28;20029;-64
2022/11/06 04:00:11;;;;;;;41.70;23.93;;;7.10;99.90;;;;;;4146132;28;20092;-64
2022/11/06 04:02:15;;;;;;;50.53;26.27;;;7.00;99.90;;;;;;4143756;28;20030;-64
2022/11/06 04:05:03;;;;;;;40.50;24.27;;;7.00;99.90;;;;;;4145020;28;20103;-64
2022/11/06 04:07:09;;;;;;;40.43;24.33;;;6.90;99.90;;;;;;4078108;29;20047;-64
2022/11/06 04:13:59;;;;;;;45.30;25.77;;;7.10;99.90;;;;;;4145230;28;20069;-65
2022/11/06 04:16:01;;;;;;;43.13;24.47;;;7.10;99.90;;;;;;4146851;28;20050;-65
2022/11/06 04:18:02;;;;;;;46.93;24.70;;;7.10;99.90;;;;;;4147341;28;20042;-65
2022/11/06 04:20:07;;;;;;;45.63;25.20;;;7.10;99.90;;;;;;4146363;28;20042;-65
2022/11/06 04:22:33;;;;;;;42.97;24.37;;;7.10;99.90;;;;;;4147442;28;20080;-64
2022/11/06 04:27:51;;;;;;;46.87;25.07;;;6.90;99.90;;;;;;4116651;28;20088;-64
2022/11/06 04:30:04;;;;;;;48.78;27.88;;;6.90;99.90;;;;;;4129776;28;20553;-64
2022/11/06 04:32:26;;;;;;;45.47;24.90;;;6.90;99.90;;;;;;4146274;28;20064;-64
2022/11/06 04:34:39;;;;;;;52.13;25.67;;;6.90;99.90;;;;;;4147393;28;20034;-63
2022/11/06 04:37:13;;;;;;;43.43;26.03;;;6.90;99.90;;;;;;4146444;28;20030;-64
2022/11/06 04:39:29;;;;;;;42.50;25.77;;;6.80;99.90;;;;;;4116354;28;20050;-63
2022/11/06 04:41:33;;;;;;;40.43;24.10;;;6.80;99.90;;;;;;4146337;28;20057;-63
2022/11/06 04:43:56;;;;;;;42.60;24.37;;;6.80;99.90;;;;;;4129242;28;20081;-64
2022/11/06 04:46:01;;;;;;;44.90;25.73;;;6.80;99.90;;;;;;4146530;28;20060;-64
2022/11/06 04:48:04;;;;;;;47.97;24.47;;;6.70;99.90;;;;;;4146682;28;20042;-63
2022/11/06 04:50:08;;;;;;;40.00;22.90;;;6.70;99.90;;;;;;4146096;28;20080;-63
2022/11/06 04:52:15;;;;;;;44.33;24.70;;;6.60;99.90;;;;;;4147474;28;20030;-64
2022/11/06 04:54:17;;;;;;;44.07;24.27;;;6.50;99.90;;;;;;4162567;28;20064;-64
2022/11/06 04:56:32;;;;;;;43.17;25.17;;;6.60;99.90;;;;;;4163507;28;20033;-63
2022/11/06 04:58:34;;;;;;;41.17;24.57;;;6.50;99.90;;;;;;4162345;28;20025;-63
2022/11/06 05:00:36;;;;;;;44.50;26.03;;;6.50;99.90;;;;;;4163517;28;20033;-64
2022/11/06 05:02:37;;;;;;;45.33;24.33;;;6.50;99.90;;;;;;4162061;28;20563;-63
2022/11/06 05:04:38;;;;;;;40.97;23.33;;;6.50;99.90;;;;;;4162567;28;20053;-63
2022/11/06 05:06:39;;;;;;;37.47;24.30;;;6.50;99.90;;;;;;4162188;28;20087;-63
2022/11/06 05:08:41;;;;;;;41.20;24.13;;;6.40;99.90;;;;;;4163719;28;20083;-64
2022/11/06 05:10:42;;;;;;;46.37;23.47;;;6.40;99.90;;;;;;4161892;28;20038;-64
2022/11/06 05:12:46;;;;;;;37.83;21.60;;;6.40;99.90;;;;;;4159966;28;20061;-64
2022/11/06 05:14:47;;;;;;;36.83;21.97;;;6.40;99.90;;;;;;4153882;28;20100;-63
2022/11/06 05:16:48;;;;;;;44.87;22.93;;;6.40;99.90;;;;;;4160153;28;20029;-63
2022/11/06 05:18:49;;;;;;;40.87;22.80;;;6.50;99.90;;;;;;4153745;28;20084;-65
2022/11/06 05:22:56;;;;;;;40.20;22.20;;;6.50;99.90;;;;;;4146149;28;20418;-64
2022/11/06 05:23:12;;;;;;;41.17;21.53;;;6.50;99.90;;;;;;4145738;28;20030;-63
2022/11/06 05:25:14;;;;;;;36.07;22.07;;;6.60;99.90;;;;;;4149711;28;20041;-64
2022/11/06 05:27:15;;;;;;;37.33;23.30;;;6.60;99.90;;;;;;4162498;28;20033;-64
2022/11/06 05:29:16;;;;;;;36.23;22.20;;;6.70;99.90;;;;;;4162202;28;20025;-64
2022/11/06 05:31:17;;;;;;;35.20;21.30;;;6.70;99.90;;;;;;4161777;28;20095;-63
2022/11/06 05:33:18;;;;;;;45.23;22.30;;;6.70;99.90;;;;;;4161319;28;20096;-64
2022/11/06 05:35:20;;;;;;;36.73;21.03;;;6.80;99.90;;;;;;4162944;28;20414;-64
2022/11/06 05:37:21;;;;;;;42.23;22.50;;;6.90;99.90;;;;;;4161493;28;20433;-64
2022/11/06 05:39:22;;;;;;;35.47;20.67;;;6.80;99.90;;;;;;4161051;28;20471;-64
2022/11/06 05:41:23;;;;;;;38.57;20.70;;;6.80;99.90;;;;;;4160375;28;20063;-64
2022/11/06 05:43:24;;;;;;;45.13;23.77;;;6.80;99.90;;;;;;4162899;28;20037;-64
2022/11/06 05:45:25;;;;;;;42.07;24.70;;;6.90;99.90;;;;;;4159706;28;20548;-64
2022/11/06 05:47:27;;;;;;;38.43;23.97;;;6.80;99.90;;;;;;4146270;28;20057;-64
2022/11/06 05:49:28;;;;;;;37.87;23.37;;;6.90;99.90;;;;;;4144506;28;20057;-64
2022/11/06 05:51:29;;;;;;;45.53;23.57;;;6.90;99.90;;;;;;4146283;28;20537;-64
2022/11/06 05:53:32;;;;;;;40.73;23.07;;;6.90;99.90;;;;;;4145378;28;20069;-64
2022/11/06 05:55:34;;;;;;;39.47;23.80;;;6.90;99.90;;;;;;4145824;28;20465;-65
2022/11/06 05:57:35;;;;;;;43.87;24.03;;;7.00;99.90;;;;;;4145536;28;20064;-65
2022/11/06 05:59:36;;;;;;;44.67;25.40;;;7.00;99.90;;;;;;4144864;28;20540;-65
2022/11/06 06:01:37;;;;;;;46.13;27.87;;;7.10;99.90;;;;;;4147726;28;20037;-65
2022/11/06 06:03:38;;;;;;;44.17;25.93;;;7.10;99.90;;;;;;4145017;28;20375;-65
2022/11/06 06:05:40;;;;;;;43.40;23.57;;;7.10;99.90;;;;;;4145917;28;20115;-66
2022/11/06 06:07:41;;;;;;;46.20;26.50;;;7.10;99.90;;;;;;4145464;28;20088;-64
2022/11/06 06:09:42;;;;;;;45.47;26.57;;;7.10;99.90;;;;;;4146376;28;20033;-63
2022/11/06 06:11:44;;;;;;;37.33;25.00;;;7.10;99.90;;;;;;4145645;28;20030;-63
2022/11/06 06:13:47;;;;;;;45.23;24.97;;;7.10;99.90;;;;;;4147264;28;20092;-63
2022/11/06 06:15:48;;;;;;;43.13;24.97;;;7.20;99.90;;;;;;4145741;28;20068;-63
2022/11/06 06:17:49;;;;;;;47.90;24.87;;;7.20;99.90;;;;;;4148073;28;20042;-64
2022/11/06 06:19:50;;;;;;;44.07;24.77;;;7.20;99.90;;;;;;4148533;28;20084;-63
2022/11/06 06:21:51;;;;;;;42.10;25.23;;;7.20;99.90;;;;;;4161334;28;20037;-63
2022/11/06 06:23:52;;;;;;;43.57;25.63;;;7.40;99.90;;;;;;4160241;28;20064;-63
2022/11/06 06:25:55;;;;;;;41.23;25.47;;;7.50;99.90;;;;;;4161730;28;20091;-64
2022/11/06 06:27:57;;;;;;;44.60;25.33;;;7.60;99.90;;;;;;4150842;28;20042;-63
2022/11/06 06:29:58;;;;;;;54.10;27.60;;;7.80;99.90;;;;;;4145165;28;20025;-66
2022/11/06 06:31:59;;;;;;;42.90;27.77;;;7.90;99.90;;;;;;4144769;28;20081;-64
2022/11/06 06:34:00;;;;;;;44.63;28.13;;;8.10;99.90;;;;;;4144774;28;20030;-64
2022/11/06 06:36:03;;;;;;;45.57;26.90;;;8.30;99.90;;;;;;4145451;28;20091;-64
2022/11/06 06:38:04;;;;;;;42.17;26.73;;;8.60;99.90;;;;;;4126681;28;20474;-64
2022/11/06 06:40:06;;;;;;;41.83;24.40;;;9.00;99.90;;;;;;4146077;28;20030;-63
2022/11/06 06:42:07;;;;;;;42.40;25.40;;;9.20;99.90;;;;;;4143344;28;20077;-64
2022/11/06 06:44:08;;;;;;;36.63;23.17;;;9.40;99.90;;;;;;4144432;28;20037;-64
2022/11/06 06:46:09;;;;;;;38.13;23.20;;;9.60;99.90;;;;;;4144172;28;20494;-65
2022/11/06 06:48:11;;;;;;;44.40;23.13;;;9.80;99.90;;;;;;4145059;28;20046;-64
2022/11/06 06:50:12;;;;;;;36.63;22.20;;;9.80;99.90;;;;;;4126272;28;20113;-64
2022/11/06 06:52:13;;;;;;;38.93;22.20;;;10.00;99.90;;;;;;4145180;28;20038;-65
2022/11/06 06:54:14;;;;;;;36.87;21.00;;;10.10;99.90;;;;;;4144142;28;20080;-66
2022/11/06 06:56:16;;;;;;;31.87;21.63;;;10.20;99.90;;;;;;4144843;28;20135;-64
2022/11/06 06:58:17;;;;;;;34.27;21.03;;;10.50;99.90;;;;;;4143665;28;20447;-65
2022/11/06 07:00:19;;;;;;;37.17;22.03;;;10.70;99.90;;;;;;4144510;28;20708;-64
2022/11/06 07:02:21;;;;;;;33.60;20.93;;;10.80;99.90;;;;;;4144287;28;20029;-64
2022/11/06 07:04:22;;;;;;;31.90;20.60;;;11.10;99.90;;;;;;4143354;28;20479;-63
2022/11/06 07:06:23;;;;;;;36.33;19.87;;;11.20;99.90;;;;;;4157839;28;20068;-64
2022/11/06 07:08:27;;;;;;;33.80;19.70;;;11.50;99.90;;;;;;4153977;28;20045;-65
2022/11/06 07:10:29;;;;;;;36.03;20.10;;;11.80;99.90;;;;;;4144604;28;20478;-64
2022/11/06 07:12:31;;;;;;;34.60;21.47;;;11.90;99.90;;;;;;4142813;28;20049;-65
2022/11/06 07:14:32;;;;;;;33.87;20.50;;;11.70;99.90;;;;;;4144418;28;20034;-64
2022/11/06 07:16:33;;;;;;;36.03;21.90;;;11.50;99.90;;;;;;4144650;28;20030;-65
2022/11/06 07:18:35;;;;;;;35.10;23.40;;;11.50;99.90;;;;;;4145732;28;20030;-64
2022/11/06 07:20:38;;;;;;;40.70;24.60;;;11.50;99.90;;;;;;4145513;28;20045;-64
2022/11/06 07:22:39;;;;;;;38.43;25.70;;;11.30;99.90;;;;;;4145685;28;20038;-65
2022/11/06 07:24:40;;;;;;;46.47;25.13;;;11.10;99.90;;;;;;4143488;28;20033;-64
2022/11/06 07:26:41;;;;;;;39.07;25.97;;;11.00;99.90;;;;;;4154032;28;20494;-64
2022/11/06 07:28:43;;;;;;;43.40;26.90;;;10.90;99.90;;;;;;4159155;28;20034;-64
2022/11/06 07:30:44;;;;;;;41.67;25.53;;;11.00;99.90;;;;;;4155028;28;20105;-64
2022/11/06 07:32:45;;;;;;;34.20;22.30;;;11.00;99.90;;;;;;4144098;28;20029;-64
2022/11/06 07:34:46;;;;;;;32.37;21.97;;;10.90;99.90;;;;;;4143199;28;20065;-64
2022/11/06 07:36:47;;;;;;;36.00;20.60;;;10.90;99.90;;;;;;4143353;28;20030;-65
2022/11/06 07:38:48;;;;;;;34.27;19.47;;;10.90;99.90;;;;;;4143167;28;20030;-64
2022/11/06 07:40:49;;;;;;;33.17;19.47;;;10.90;99.90;;;;;;4144725;28;20029;-63
2022/11/06 07:42:50;;;;;;;35.03;20.00;;;10.90;99.90;;;;;;4148301;28;20080;-64
2022/11/06 07:44:54;;;;;;;36.37;20.33;;;10.90;99.90;;;;;;4159911;28;20049;-64
2022/11/06 07:46:55;;;;;;;32.40;20.40;;;10.80;99.90;;;;;;4159037;28;20481;-64
2022/11/06 07:48:56;;;;;;;31.27;19.67;;;10.90;99.90;;;;;;4162471;28;20053;-64
2022/11/06 07:51:00;;;;;;;35.00;20.30;;;11.00;99.90;;;;;;4163322;28;20493;-64
2022/11/06 07:53:03;;;;;;;35.07;18.70;;;11.10;99.90;;;;;;4164291;28;20037;-64
2022/11/06 07:55:04;;;;;;;33.50;18.00;;;11.30;99.90;;;;;;4162662;28;20033;-64
2022/11/06 07:57:05;;;;;;;34.57;20.17;;;11.30;99.90;;;;;;4164405;28;20433;-64
2022/11/06 07:59:06;;;;;;;32.77;19.90;;;11.30;99.90;;;;;;4163232;28;20080;-64
2022/11/06 08:01:14;;;;;;;36.97;19.60;;;11.30;99.90;;;;;;4163772;28;20076;-65
2022/11/06 08:03:16;;;;;;;37.57;21.77;;;11.30;99.90;;;;;;4162857;28;20029;-64
2022/11/06 08:05:17;;;;;;;38.07;22.30;;;11.30;99.90;;;;;;4151667;28;20045;-65
2022/11/06 08:07:18;;;;;;;32.13;21.37;;;11.40;99.90;;;;;;4146988;28;20474;-65
2022/11/06 08:09:20;;;;;;;31.90;21.27;;;11.40;99.90;;;;;;4147463;28;20088;-64
2022/11/06 08:11:21;;;;;;;37.17;20.93;;;11.50;99.90;;;;;;4147100;28;20072;-63
2022/11/06 08:13:24;;;;;;;33.83;21.33;;;11.50;99.90;;;;;;4146278;28;20029;-64
2022/11/06 08:15:25;;;;;;;37.80;22.93;;;11.50;99.90;;;;;;4146586;28;20073;-65
2022/11/06 08:17:28;;;;;;;43.23;25.67;;;11.50;99.90;;;;;;4146118;28;20033;-64
2022/11/06 08:19:30;;;;;;;41.13;22.53;;;11.60;99.90;;;;;;4147526;28;20064;-64
2022/11/06 08:21:31;;;;;;;41.73;24.17;;;11.70;99.90;;;;;;4146403;28;20046;-64
2022/11/06 08:23:34;;;;;;;38.23;24.03;;;11.90;99.90;;;;;;4150596;28;20030;-65
2022/11/06 08:25:35;;;;;;;36.03;22.47;;;12.20;99.90;;;;;;4152448;28;20057;-64
2022/11/06 08:27:36;;;;;;;36.23;23.77;;;12.60;99.90;;;;;;4163263;28;20045;-65
2022/11/06 08:29:37;;;;;;;37.47;23.60;;;12.80;99.90;;;;;;4162350;28;20033;-64
2022/11/06 08:31:39;;;;;;;46.10;24.20;;;13.00;99.90;;;;;;4162556;28;20053;-64
2022/11/06 08:33:40;;;;;;;40.57;24.07;;;13.20;99.90;;;;;;4130394;28;20097;-65
2022/11/06 08:35:41;;;;;;;35.87;22.20;;;13.30;99.90;;;;;;4146424;28;20129;-66
2022/11/06 08:37:42;;;;;;;37.33;23.67;;;13.20;99.90;;;;;;4145821;28;20030;-64
2022/11/06 08:39:44;;;;;;;35.87;22.37;;;13.20;99.90;;;;;;4147163;28;20562;-63
2022/11/06 08:41:45;;;;;;;33.47;21.50;;;13.20;99.90;;;;;;4145994;28;20470;-67
2022/11/06 08:43:50;;;;;;;53.53;25.60;;;13.20;99.90;;;;;;4130039;28;20069;-66
2022/11/06 08:45:51;;;;;;;57.40;27.40;;;13.20;99.90;;;;;;4145741;28;20518;-64
2022/11/06 08:47:53;;;;;;;36.53;22.23;;;13.20;99.90;;;;;;4155580;28;20049;-64
2022/11/06 08:49:54;;;;;;;36.73;22.33;;;13.20;99.90;;;;;;4161350;28;20054;-64
2022/11/06 08:51:56;;;;;;;39.07;23.10;;;13.10;99.90;;;;;;4162119;28;20037;-64
2022/11/06 08:53:57;;;;;;;36.60;22.13;;;13.20;99.90;;;;;;4161692;28;20026;-65
2022/11/06 08:55:58;;;;;;;37.33;21.87;;;13.20;99.90;;;;;;4151211;28;20455;-66
2022/11/06 08:58:00;;;;;;;39.73;21.97;;;13.20;99.90;;;;;;4147926;28;20029;-63
2022/11/06 09:00:01;;;;;;;41.07;22.60;;;13.10;99.90;;;;;;4144418;28;20046;-65
2022/11/06 09:02:02;;;;;;;41.93;25.27;;;13.00;99.90;;;;;;4151586;28;20469;-64
2022/11/06 09:04:04;;;;;;;38.43;21.80;;;12.90;99.90;;;;;;4161047;28;20045;-67
2022/11/06 09:06:06;;;;;;;40.53;22.80;;;12.90;99.90;;;;;;4156691;28;20037;-66
2022/11/06 09:08:08;;;;;;;37.53;21.80;;;12.90;99.90;;;;;;4150420;28;20033;-67
2022/11/06 09:10:09;;;;;;;36.00;21.13;;;13.00;99.90;;;;;;4150323;28;20025;-67
2022/11/06 09:12:10;;;;;;;35.67;20.07;;;12.90;99.90;;;;;;4148171;28;20030;-65
2022/11/06 09:14:11;;;;;;;34.97;21.23;;;12.80;99.90;;;;;;4152635;28;20029;-67
2022/11/06 09:16:12;;;;;;;35.63;20.40;;;12.80;99.90;;;;;;4162634;28;20026;-68
2022/11/06 09:18:13;;;;;;;36.33;23.00;;;12.90;99.90;;;;;;4153830;28;20026;-67
2022/11/06 09:20:17;;;;;;;34.80;21.33;;;12.90;99.90;;;;;;4130361;28;20031;-64
2022/11/06 09:22:18;;;;;;;35.53;22.57;;;13.00;99.90;;;;;;4127766;28;20046;-64
2022/11/06 09:24:20;;;;;;;37.37;22.40;;;13.10;99.90;;;;;;4145807;28;20053;-66
2022/11/06 09:26:21;;;;;;;36.87;22.13;;;13.30;99.90;;;;;;4144570;28;20050;-67
2022/11/06 09:28:22;;;;;;;36.67;21.47;;;13.40;99.90;;;;;;4146401;28;20115;-66
2022/11/06 09:30:24;;;;;;;34.87;22.00;;;13.50;99.90;;;;;;4159114;28;20468;-64
2022/11/06 09:32:26;;;;;;;33.63;21.13;;;13.50;99.90;;;;;;4162653;28;20037;-65
2022/11/06 09:34:27;;;;;;;34.17;20.27;;;13.60;99.90;;;;;;4161475;28;20045;-65
2022/11/06 09:36:28;;;;;;;40.87;23.37;;;13.70;99.90;;;;;;4161502;28;20014;-65
2022/11/06 09:38:29;;;;;;;40.43;20.97;;;13.90;99.90;;;;;;4145977;28;20096;-65
2022/11/06 09:40:54;;;;;;;33.47;20.63;;;14.00;99.90;;;;;;4155383;28;20025;-67
2022/11/06 09:43:18;;;;;;;42.23;27.93;;;14.10;99.90;;;;;;4159290;28;20091;-65
2022/11/06 09:45:23;;;;;;;33.27;21.07;;;14.20;99.90;;;;;;4161349;28;20079;-66
2022/11/06 09:47:31;;;;;;;33.27;19.57;;;14.40;99.90;;;;;;4158639;28;20454;-65
2022/11/06 09:49:38;;;;;;;33.67;19.33;;;14.50;99.90;;;;;;4155037;28;20046;-68
2022/11/06 09:51:45;;;;;;;28.33;18.13;;;14.70;99.90;;;;;;4149114;28;20030;-66
2022/11/06 09:54:08;;;;;;;31.10;17.85;;;14.90;99.90;;;;;;4153299;28;20083;-65
2022/11/06 09:56:12;;;;;;;29.73;16.70;;;14.90;99.90;;;;;;4144875;28;20022;-68
2022/11/06 09:58:20;;;;;;;27.17;17.50;;;15.00;99.90;;;;;;4151233;28;20033;-68
2022/11/06 10:00:22;;;;;;;26.27;16.05;;;15.10;99.90;;;;;;4149109;28;20494;-65
2022/11/06 10:02:32;;;;;;;30.52;17.73;;;15.10;99.90;;;;;;4129682;28;20034;-68
2022/11/06 10:04:58;;;;;;;29.27;15.82;;;15.20;99.90;;;;;;4157999;28;20464;-66
2022/11/06 10:06:59;;;;;;;24.98;15.68;;;15.20;99.90;;;;;;4159385;28;20505;-66
2022/11/06 10:09:04;;;;;;;26.38;15.95;;;15.30;99.90;;;;;;4134159;28;20096;-65
2022/11/06 10:11:14;;;;;;;29.20;16.38;;;15.40;99.90;;;;;;4146412;28;20033;-66
2022/11/06 10:13:41;;;;;;;25.77;16.08;;;15.30;99.90;;;;;;4152297;28;20375;-62
2022/11/06 10:16:01;;;;;;;26.20;14.40;;;15.30;99.90;;;;;;4144729;28;20502;-64
2022/11/06 10:18:29;;;;;;;25.80;15.25;;;15.40;99.90;;;;;;4144862;28;20429;-64
2022/11/06 10:20:46;;;;;;;22.25;13.85;;;15.30;99.90;;;;;;4116808;28;20041;-64
2022/11/06 10:23:08;;;;;;;23.55;13.68;;;15.30;99.90;;;;;;4156577;28;20088;-64
2022/11/06 10:25:21;;;;;;;22.35;13.35;;;15.40;99.90;;;;;;4161895;28;20034;-63
2022/11/06 10:27:37;;;;;;;22.80;13.90;;;15.50;99.90;;;;;;4159870;28;20042;-63
2022/11/06 10:29:44;;;;;;;21.55;16.02;;;15.60;99.90;;;;;;4160791;28;20022;-63
2022/11/06 10:32:27;;;;;;;19.85;12.70;;;15.60;99.90;;;;;;4159490;28;20555;-62
2022/11/06 10:34:30;;;;;;;17.48;11.65;;;15.70;99.90;;;;;;4126439;28;20111;-62
2022/11/06 10:36:50;;;;;;;15.80;10.43;;;15.90;99.90;;;;;;4153496;28;20033;-63
2022/11/06 10:38:52;;;;;;;19.20;10.38;;;16.00;99.90;;;;;;4157649;28;20524;-63
2022/11/06 10:40:55;;;;;;;19.25;10.43;;;16.10;99.90;;;;;;4144175;28;20034;-61
2022/11/06 10:43:17;;;;;;;16.38;9.57;;;16.10;99.90;;;;;;4145295;28;20029;-62
2022/11/06 10:45:20;;;;;;;15.73;10.13;;;16.20;99.90;;;;;;4145239;28;20107;-63
2022/11/06 10:47:26;;;;;;;15.15;10.70;;;16.20;99.90;;;;;;4143963;28;20053;-63
2022/11/06 10:49:43;;;;;;;15.65;10.10;;;16.20;99.90;;;;;;4154196;28;20111;-62
2022/11/06 10:52:04;;;;;;;16.27;9.27;;;16.10;99.90;;;;;;4160656;28;20033;-63